createdAt,value
2023-08-17T00:02:05.454Z,5.60
2023-08-17T00:07:00.026Z,5.60
2023-08-17T00:09:30.167Z,5.80
2023-08-17T00:11:59.252Z,5.70
2023-08-17T00:14:31.145Z,5.30
2023-08-17T00:17:04.820Z,5.50
2023-08-17T00:19:40.654Z,5.30
2023-08-17T00:22:27.068Z,5.90
2023-08-17T00:28:05.693Z,6.10
2023-08-17T00:33:40.768Z,5.20
2023-08-17T00:36:10.916Z,5.80
2023-08-17T00:38:40.083Z,5.50
2023-08-17T00:41:09.153Z,5.60
2023-08-17T00:43:42.071Z,5.70
2023-08-17T00:47:17.359Z,5.90
2023-08-17T00:52:41.480Z,5.60
2023-08-17T00:55:12.877Z,5.60
2023-08-17T00:57:44.876Z,6.20
2023-08-17T01:00:20.129Z,6.10
2023-08-17T01:02:49.360Z,6.10
2023-08-17T01:05:19.792Z,5.90
2023-08-17T01:07:53.354Z,5.80
2023-08-17T01:10:45.259Z,6.50
2023-08-17T01:13:17.542Z,5.50
2023-08-17T01:15:52.103Z,6.20
2023-08-17T01:18:37.580Z,5.70
2023-08-17T01:21:08.048Z,5.80
2023-08-17T01:23:38.999Z,5.40
2023-08-17T01:26:07.226Z,6.20
2023-08-17T01:28:42.041Z,5.80
2023-08-17T01:31:16.681Z,5.70
2023-08-17T01:34:01.014Z,5.60
2023-08-17T01:36:44.801Z,6.00
2023-08-17T01:39:14.980Z,5.60
2023-08-17T01:42:08.777Z,5.10
2023-08-17T01:44:39.771Z,5.20
2023-08-17T01:47:09.301Z,5.50
2023-08-17T01:49:42.737Z,5.00
2023-08-17T01:52:11.403Z,5.10
2023-08-17T01:54:42.021Z,5.60
2023-08-17T01:57:19.808Z,5.30
2023-08-17T01:59:53.924Z,5.30
2023-08-17T02:02:24.789Z,5.50
2023-08-17T02:05:09.370Z,5.30
2023-08-17T02:07:39.224Z,4.80
2023-08-17T02:10:08.768Z,5.60
2023-08-17T02:12:40.799Z,5.00
2023-08-17T02:16:20.763Z,5.50
2023-08-17T02:19:18.226Z,5.40
2023-08-17T02:22:11.128Z,5.30
2023-08-17T02:24:42.668Z,4.50
2023-08-17T02:27:19.354Z,4.80
2023-08-17T02:29:50.999Z,5.40
2023-08-17T02:32:20.101Z,5.10
2023-08-17T02:34:52.143Z,4.80
2023-08-17T02:37:21.079Z,5.20
2023-08-17T02:39:52.445Z,4.50
2023-08-17T02:42:21.993Z,5.60
2023-08-17T02:44:55.106Z,5.40
2023-08-17T02:47:26.776Z,5.60
2023-08-17T02:50:00.395Z,5.10
2023-08-17T02:52:46.110Z,4.80
2023-08-17T02:55:33.930Z,5.60
2023-08-17T02:58:06.908Z,4.40
2023-08-17T03:00:35.108Z,5.10
2023-08-17T03:03:04.557Z,5.10
2023-08-17T03:05:34.587Z,6.10
2023-08-17T03:08:09.797Z,5.10
2023-08-17T03:10:45.088Z,4.90
2023-08-17T03:15:44.016Z,5.50
2023-08-17T03:18:16.050Z,5.30
2023-08-17T03:20:47.311Z,4.70
2023-08-17T03:25:44.301Z,4.90
2023-08-17T03:28:13.099Z,4.70
2023-08-17T03:30:42.311Z,5.10
2023-08-17T03:33:16.686Z,5.20
2023-08-17T03:35:45.656Z,5.00
2023-08-17T03:38:17.749Z,5.20
2023-08-17T03:40:49.133Z,4.60
2023-08-17T03:43:20.247Z,4.30
2023-08-17T03:45:51.904Z,5.40
2023-08-17T03:48:23.502Z,4.90
2023-08-17T03:50:58.197Z,5.70
2023-08-17T03:53:28.189Z,5.00
2023-08-17T03:55:58.695Z,5.60
2023-08-17T03:58:28.167Z,5.30
2023-08-17T04:01:04.568Z,5.10
2023-08-17T04:03:36.568Z,5.10
2023-08-17T04:06:26.072Z,5.00
2023-08-17T04:08:55.941Z,5.60
2023-08-17T04:11:28.481Z,4.80
2023-08-17T04:13:58.321Z,5.00
2023-08-17T04:16:45.347Z,4.90
2023-08-17T04:19:16.206Z,5.00
2023-08-17T04:21:47.307Z,4.80
2023-08-17T04:24:17.180Z,5.30
2023-08-17T04:26:48.621Z,5.50
2023-08-17T04:29:20.723Z,4.90
2023-08-17T04:31:57.232Z,5.10
2023-08-17T04:34:27.850Z,5.50
2023-08-17T04:36:58.252Z,5.60
2023-08-17T04:39:30.785Z,4.80
2023-08-17T04:41:59.455Z,5.30
2023-08-17T04:44:33.237Z,4.80
2023-08-17T04:47:02.420Z,4.40
2023-08-17T04:52:02.264Z,5.10
2023-08-17T04:54:33.439Z,5.00
2023-08-17T04:59:32.999Z,5.10
2023-08-17T05:02:01.413Z,4.70
2023-08-17T05:04:34.255Z,4.60
2023-08-17T05:07:06.660Z,4.30
2023-08-17T05:09:38.906Z,4.20
2023-08-17T05:12:08.415Z,4.60
2023-08-17T05:14:38.773Z,4.60
2023-08-17T05:17:10.556Z,5.20
2023-08-17T05:19:40.897Z,4.90
2023-08-17T05:22:15.897Z,5.40
2023-08-17T05:24:45.626Z,4.60
2023-08-17T05:27:18.775Z,5.20
2023-08-17T05:29:48.732Z,4.90
2023-08-17T05:32:26.830Z,4.40
2023-08-17T05:34:55.942Z,4.70
2023-08-17T05:37:34.104Z,4.70
2023-08-17T05:40:19.041Z,5.10
2023-08-17T05:42:56.413Z,5.30
2023-08-17T05:45:26.768Z,4.50
2023-08-17T05:48:04.309Z,5.50
2023-08-17T05:50:37.822Z,5.30
2023-08-17T05:53:09.698Z,6.10
2023-08-17T05:55:41.164Z,4.30
2023-08-17T06:00:45.572Z,5.10
2023-08-17T06:03:16.844Z,5.20
2023-08-17T06:05:48.228Z,4.70
2023-08-17T06:08:34.653Z,5.50
2023-08-17T06:11:03.660Z,4.60
2023-08-17T06:13:35.429Z,4.40
2023-08-17T06:18:54.260Z,4.60
2023-08-17T06:21:44.840Z,5.00
2023-08-17T06:24:16.313Z,4.50
2023-08-17T06:27:07.929Z,4.20
2023-08-17T06:29:52.271Z,4.00
2023-08-17T06:32:32.355Z,4.10
2023-08-17T06:35:02.257Z,4.00
2023-08-17T06:37:48.017Z,4.00
2023-08-17T06:40:17.805Z,4.30
2023-08-17T06:43:19.017Z,3.50
2023-08-17T06:46:09.306Z,3.60
2023-08-17T06:48:43.007Z,4.20
2023-08-17T06:51:19.451Z,4.30
2023-08-17T06:53:50.608Z,3.70
2023-08-17T06:56:44.912Z,3.70
2023-08-17T06:59:19.193Z,3.80
2023-08-17T07:01:58.961Z,3.30
2023-08-17T07:04:48.007Z,3.80
2023-08-17T07:07:28.243Z,3.70
2023-08-17T07:10:05.209Z,3.60
2023-08-17T07:12:36.928Z,3.70
2023-08-17T07:15:35.358Z,3.30
2023-08-17T07:18:52.974Z,3.10
2023-08-17T07:22:35.800Z,3.10
2023-08-17T07:26:24.085Z,2.90
2023-08-17T07:29:00.832Z,3.10
2023-08-17T07:31:32.990Z,3.40
2023-08-17T07:34:14.792Z,3.70
2023-08-17T07:37:15.718Z,2.60
2023-08-17T07:40:04.840Z,2.70
2023-08-17T07:43:12.486Z,2.70
2023-08-17T07:45:57.221Z,2.60
2023-08-17T07:48:51.302Z,2.80
2023-08-17T07:51:25.270Z,2.80
2023-08-17T07:53:54.722Z,2.70
2023-08-17T07:56:47.939Z,3.00
2023-08-17T07:59:21.354Z,2.70
2023-08-17T08:01:52.101Z,2.60
2023-08-17T08:04:26.280Z,2.90
2023-08-17T08:07:18.586Z,2.70
2023-08-17T08:09:57.931Z,3.40
2023-08-17T08:13:02.628Z,2.80
2023-08-17T08:15:40.744Z,2.80
2023-08-17T08:18:38.007Z,2.50
2023-08-17T08:21:09.053Z,2.70
2023-08-17T08:24:39.217Z,2.40
2023-08-17T08:27:32.483Z,2.90
2023-08-17T08:32:36.533Z,2.40
2023-08-17T08:35:12.666Z,2.60
2023-08-17T08:38:02.847Z,2.40
2023-08-17T08:41:15.179Z,3.20
2023-08-17T08:43:47.919Z,2.30
2023-08-17T08:46:21.706Z,2.40
2023-08-17T08:48:52.504Z,2.50
2023-08-17T08:51:24.444Z,2.80
2023-08-17T08:53:57.237Z,3.10
2023-08-17T08:56:47.747Z,2.40
2023-08-17T08:59:22.048Z,2.40
2023-08-17T09:01:56.294Z,2.50
2023-08-17T09:04:48.366Z,2.30
2023-08-17T09:07:30.118Z,2.50
2023-08-17T09:10:09.404Z,2.40
2023-08-17T09:13:06.792Z,2.60
2023-08-17T09:18:48.748Z,2.30
2023-08-17T09:21:22.385Z,2.30
2023-08-17T09:24:00.127Z,2.70
2023-08-17T09:26:54.835Z,2.50
2023-08-17T09:29:50.271Z,2.90
2023-08-17T09:32:44.304Z,2.20
2023-08-17T09:35:43.398Z,2.80
2023-08-17T09:38:54.431Z,2.40
2023-08-17T09:41:27.622Z,2.60
2023-08-17T09:44:41.597Z,2.60
2023-08-17T09:47:50.494Z,3.20
2023-08-17T09:55:08.971Z,2.80
2023-08-17T09:58:33.524Z,2.60
2023-08-17T10:01:41.722Z,2.90
2023-08-17T10:04:13.104Z,2.50
2023-08-17T10:07:03.343Z,2.60
2023-08-17T10:10:12.206Z,2.40
2023-08-17T10:13:21.006Z,2.60
2023-08-17T10:18:32.845Z,2.80
2023-08-17T10:21:24.986Z,2.50
2023-08-17T10:24:33.640Z,2.30
2023-08-17T10:27:25.057Z,2.60
2023-08-17T10:30:35.400Z,2.80
2023-08-17T10:33:21.416Z,3.00
2023-08-17T10:36:39.442Z,2.80
2023-08-17T10:39:43.373Z,2.30
2023-08-17T10:43:15.972Z,2.60
2023-08-17T10:49:26.129Z,2.50
2023-08-17T10:52:21.933Z,2.30
2023-08-17T10:55:22.614Z,2.30
2023-08-17T10:58:29.058Z,2.20
2023-08-17T11:01:57.086Z,2.70
2023-08-17T11:05:00.118Z,2.80
2023-08-17T11:07:48.479Z,2.90
2023-08-17T11:10:22.992Z,2.70
2023-08-17T11:12:58.828Z,2.70
2023-08-17T11:15:28.948Z,2.60
2023-08-17T11:18:17.850Z,3.10
2023-08-17T11:20:50.158Z,2.80
2023-08-17T11:23:40.510Z,2.10
2023-08-17T11:26:47.026Z,2.30
2023-08-17T11:29:45.034Z,2.50
2023-08-17T11:32:20.405Z,2.40
2023-08-17T11:34:59.343Z,2.10
2023-08-17T11:37:36.047Z,2.40
2023-08-17T11:40:34.161Z,2.10
2023-08-17T11:43:14.449Z,2.50
2023-08-17T11:46:19.331Z,2.60
2023-08-17T11:49:21.666Z,2.30
2023-08-17T11:53:14.639Z,3.10
2023-08-17T11:55:43.979Z,2.30
2023-08-17T11:58:13.765Z,1.90
2023-08-17T12:00:51.069Z,2.30
2023-08-17T12:03:37.877Z,2.20
2023-08-17T12:06:07.550Z,3.10
2023-08-17T12:08:38.004Z,2.10
2023-08-17T12:11:08.222Z,2.30
2023-08-17T12:13:39.887Z,2.10
2023-08-17T12:16:16.758Z,2.20
2023-08-17T12:18:51.278Z,2.00
2023-08-17T12:21:39.746Z,2.20
2023-08-17T12:24:09.988Z,2.30
2023-08-17T12:26:46.176Z,2.30
2023-08-17T12:29:19.556Z,2.60
2023-08-17T12:31:50.597Z,2.10
2023-08-17T12:34:25.956Z,2.80
2023-08-17T12:36:59.620Z,2.20
2023-08-17T12:39:40.332Z,2.00
2023-08-17T12:42:12.871Z,2.00
2023-08-17T12:45:06.107Z,2.80
2023-08-17T12:47:35.518Z,2.70
2023-08-17T12:50:05.974Z,2.10
2023-08-17T12:52:47.243Z,2.00
2023-08-17T12:55:22.163Z,2.30
2023-08-17T12:58:02.247Z,2.00
2023-08-17T13:00:34.537Z,3.00
2023-08-17T13:03:03.573Z,2.50
2023-08-17T13:05:53.328Z,2.40
2023-08-17T13:08:50.260Z,2.60
2023-08-17T13:11:18.780Z,2.70
2023-08-17T13:14:03.573Z,2.30
2023-08-17T13:16:39.862Z,2.60
2023-08-17T13:19:28.030Z,2.40
2023-08-17T13:22:01.247Z,2.40
2023-08-17T13:25:04.324Z,2.60
2023-08-17T13:27:40.875Z,2.40
2023-08-17T13:30:28.846Z,2.50
2023-08-17T13:32:58.929Z,2.20
2023-08-17T13:35:29.198Z,2.40
2023-08-17T13:37:59.928Z,2.50
2023-08-17T13:40:45.636Z,2.30
2023-08-17T13:43:21.025Z,2.60
2023-08-17T13:46:00.218Z,2.50
2023-08-17T13:48:57.591Z,2.60
2023-08-17T13:51:28.061Z,2.10
2023-08-17T13:53:59.992Z,2.30
2023-08-17T13:56:32.076Z,2.10
2023-08-17T13:59:05.286Z,2.30
2023-08-17T14:02:20.520Z,2.80
2023-08-17T14:04:55.983Z,2.20
2023-08-17T14:07:26.988Z,2.70
2023-08-17T14:10:32.959Z,2.40
2023-08-17T14:13:05.464Z,2.60
2023-08-17T14:15:36.235Z,2.10
2023-08-17T14:18:26.271Z,2.40
2023-08-17T14:23:26.358Z,2.30
2023-08-17T14:26:30.537Z,2.30
2023-08-17T14:29:27.699Z,2.30
2023-08-17T14:32:38.324Z,2.20
2023-08-17T14:35:50.682Z,2.50
2023-08-17T14:38:31.804Z,2.30
2023-08-17T14:41:33.919Z,2.20
2023-08-17T14:44:10.004Z,2.40
2023-08-17T14:46:40.963Z,2.90
2023-08-17T14:49:26.862Z,2.00
2023-08-17T14:52:03.219Z,2.00
2023-08-17T14:54:43.437Z,2.10
2023-08-17T14:57:34.637Z,2.60
2023-08-17T15:00:47.616Z,2.90
2023-08-17T15:03:24.452Z,2.20
2023-08-17T15:06:14.505Z,2.30
2023-08-17T15:09:14.852Z,2.70
2023-08-17T15:12:07.790Z,2.50
2023-08-17T15:15:20.535Z,2.20
2023-08-17T15:17:52.999Z,2.30
2023-08-17T15:20:38.159Z,2.30
2023-08-17T15:23:12.648Z,2.20
2023-08-17T15:25:54.719Z,2.30
2023-08-17T15:28:43.781Z,2.20
2023-08-17T15:31:29.648Z,2.90
2023-08-17T15:35:43.442Z,2.20
2023-08-17T15:38:26.925Z,2.50
2023-08-17T15:41:11.545Z,2.30
2023-08-17T15:44:08.314Z,2.20
2023-08-17T15:47:01.369Z,2.60
2023-08-17T15:49:51.881Z,1.90
2023-08-17T15:53:11.866Z,1.80
2023-08-17T15:55:41.459Z,1.80
2023-08-17T15:58:17.948Z,2.00
2023-08-17T16:01:31.703Z,1.60
2023-08-17T16:04:52.321Z,2.00
2023-08-17T16:07:42.338Z,1.80
2023-08-17T16:10:35.124Z,1.80
2023-08-17T16:13:24.874Z,1.60
2023-08-17T16:16:37.237Z,1.90
2023-08-17T16:19:34.226Z,2.00
2023-08-17T16:22:32.386Z,1.90
2023-08-17T16:25:12.553Z,1.90
2023-08-17T16:28:20.346Z,1.90
2023-08-17T16:31:36.582Z,1.70
2023-08-17T16:34:33.499Z,1.70
2023-08-17T16:37:14.981Z,1.40
2023-08-17T16:40:01.752Z,2.30
2023-08-17T16:42:50.634Z,1.70
2023-08-17T16:45:22.023Z,1.50
2023-08-17T16:48:12.012Z,2.10
2023-08-17T16:51:04.003Z,1.50
2023-08-17T16:54:13.578Z,2.00
2023-08-17T16:57:22.657Z,1.90
2023-08-17T17:00:40.467Z,1.80
2023-08-17T17:03:22.772Z,2.20
2023-08-17T17:06:48.114Z,2.10
2023-08-17T17:12:16.597Z,2.10
2023-08-17T17:15:30.082Z,2.50
2023-08-17T17:18:49.523Z,1.70
2023-08-17T17:21:42.700Z,2.40
2023-08-17T17:24:49.290Z,2.30
2023-08-17T17:28:17.561Z,2.50
2023-08-17T17:31:14.210Z,2.10
2023-08-17T17:34:30.810Z,2.70
2023-08-17T17:37:41.428Z,2.10
2023-08-17T17:41:14.272Z,2.20
2023-08-17T17:46:56.203Z,2.80
2023-08-17T17:49:28.302Z,2.50
2023-08-17T17:52:06.151Z,2.60
2023-08-17T17:55:18.887Z,2.60
2023-08-17T17:58:09.494Z,2.50
2023-08-17T18:01:25.812Z,2.70
2023-08-17T18:04:22.906Z,2.70
2023-08-17T18:07:16.210Z,2.50
2023-08-17T18:10:05.635Z,2.10
2023-08-17T18:12:35.271Z,2.90
2023-08-17T18:15:46.968Z,3.30
2023-08-17T18:18:21.277Z,2.80
2023-08-17T18:21:11.869Z,2.70
2023-08-17T18:23:45.951Z,2.80
2023-08-17T18:26:23.706Z,2.80
2023-08-17T18:29:33.372Z,2.80
2023-08-17T18:32:04.229Z,2.80
2023-08-17T18:34:50.258Z,2.80
2023-08-17T18:37:19.330Z,3.00
2023-08-17T18:40:06.208Z,3.00
2023-08-17T18:42:58.679Z,2.90
2023-08-17T18:45:46.905Z,2.50
2023-08-17T18:49:04.905Z,2.60
2023-08-17T18:51:54.272Z,3.00
2023-08-17T18:54:43.461Z,3.00
2023-08-17T18:57:23.374Z,3.70
2023-08-17T19:00:29.534Z,3.10
2023-08-17T19:03:01.194Z,3.30
2023-08-17T19:08:35.012Z,3.90
2023-08-17T19:11:31.778Z,3.60
2023-08-17T19:14:35.960Z,3.80
2023-08-17T19:17:31.006Z,4.00
2023-08-17T19:20:25.439Z,4.30
2023-08-17T19:23:20.659Z,4.00
2023-08-17T19:25:57.858Z,3.80
2023-08-17T19:28:34.205Z,5.00
2023-08-17T19:31:11.109Z,4.20
2023-08-17T19:33:46.284Z,4.00
2023-08-17T19:36:17.802Z,5.50
2023-08-17T19:38:54.983Z,4.70
2023-08-17T19:41:28.183Z,4.80
2023-08-17T19:43:56.281Z,5.20
2023-08-17T19:46:27.426Z,4.50
2023-08-17T19:48:59.456Z,5.50
2023-08-17T19:51:33.546Z,4.50
2023-08-17T19:54:22.417Z,5.10
2023-08-17T19:57:22.783Z,5.10
2023-08-17T19:59:59.999Z,4.70
2023-08-17T20:02:37.794Z,4.70
2023-08-17T20:05:27.226Z,4.60
2023-08-17T20:08:18.863Z,4.90
2023-08-17T20:10:48.738Z,5.20
2023-08-17T20:13:30.489Z,4.90
2023-08-17T20:16:19.689Z,4.70
2023-08-17T20:19:44.918Z,5.00
2023-08-17T20:22:55.750Z,4.20
2023-08-17T20:25:45.706Z,4.30
2023-08-17T20:28:15.312Z,4.40
2023-08-17T20:30:48.188Z,4.50
2023-08-17T20:33:22.516Z,4.70
2023-08-17T20:35:55.031Z,4.50
2023-08-17T20:38:28.974Z,4.80
2023-08-17T20:40:59.693Z,4.60
2023-08-17T20:43:54.567Z,3.60
2023-08-17T20:46:25.180Z,4.70
2023-08-17T20:48:58.675Z,4.60
2023-08-17T20:51:36.447Z,4.50
2023-08-17T20:54:10.600Z,4.50
2023-08-17T20:56:48.489Z,4.30
2023-08-17T20:59:18.719Z,4.30
2023-08-17T21:01:58.815Z,4.20
2023-08-17T21:05:12.672Z,4.40
2023-08-17T21:08:05.029Z,4.40
2023-08-17T21:10:39.195Z,4.50
2023-08-17T21:13:14.369Z,4.30
2023-08-17T21:15:50.837Z,4.30
2023-08-17T21:18:22.438Z,4.70
2023-08-17T21:20:59.437Z,4.80
2023-08-17T21:23:32.370Z,4.80
2023-08-17T21:26:02.971Z,5.10
2023-08-17T21:28:33.620Z,5.10
2023-08-17T21:31:05.747Z,5.60
2023-08-17T21:33:36.404Z,4.80
2023-08-17T21:36:08.139Z,5.20
2023-08-17T21:38:40.897Z,5.00
2023-08-17T21:41:10.529Z,4.90
2023-08-17T21:43:40.883Z,4.90
2023-08-17T21:46:11.168Z,5.10
2023-08-17T21:48:44.942Z,4.40
2023-08-17T21:51:30.269Z,5.70
2023-08-17T21:54:03.885Z,4.50
2023-08-17T21:56:58.957Z,4.00
2023-08-17T21:59:50.800Z,4.40
2023-08-17T22:02:25.280Z,4.80
2023-08-17T22:05:06.723Z,4.30
2023-08-17T22:07:37.857Z,4.00
2023-08-17T22:10:10.600Z,4.90
2023-08-17T22:12:55.379Z,4.30
2023-08-17T22:15:29.655Z,4.70
2023-08-17T22:18:20.395Z,4.20
2023-08-17T22:21:09.055Z,4.30
2023-08-17T22:23:50.402Z,4.10
2023-08-17T22:26:25.421Z,4.20
2023-08-17T22:28:58.614Z,4.30
2023-08-17T22:32:18.837Z,4.00
2023-08-17T22:35:16.937Z,4.10
2023-08-17T22:38:12.343Z,5.30
2023-08-17T22:41:40.984Z,4.20
2023-08-17T22:44:33.331Z,4.10
2023-08-17T22:48:06.163Z,4.20
2023-08-17T22:50:42.622Z,4.20
2023-08-17T22:53:14.761Z,4.00
2023-08-17T23:16:24.600Z,4.60
2023-08-17T23:18:59.181Z,4.10
2023-08-17T23:21:47.928Z,4.70
2023-08-17T23:26:49.166Z,4.10
2023-08-17T23:29:21.464Z,4.10
2023-08-17T23:31:53.428Z,4.60
2023-08-17T23:34:26.427Z,4.00
2023-08-17T23:36:57.364Z,4.20
2023-08-17T23:39:26.202Z,4.40
2023-08-17T23:42:03.214Z,3.50
2023-08-17T23:44:35.050Z,4.40
2023-08-17T23:49:59.327Z,4.30
2023-08-17T23:52:44.610Z,3.40
2023-08-17T23:55:14.742Z,3.80
2023-08-17T23:57:47.957Z,3.30
